SHT21E EGJB-EGLL
Flight info
| Callsign | SHT21E |
|---|---|
| Flight time | 0h 35m |
| Altitude | 19000 |
| Route | ORIST L982 ROXOG |
| Aircraft | A319/M-SDE3FGHIRWY/LB1 |
Departure
| Time | 2026-04-20 15:54 |
|---|---|
| Airport | Guernsey Airport (EGJB) |
Arrival
| Time | 2026-04-20 16:30 |
|---|---|
| Airport | London Heathrow Airport (EGLL) |
| Time | Latitude | Longitude | Altitude | Speed | Heading |
|---|---|---|---|---|---|
| 2026-04-20 15:33 | 49.43278 | -2.59563 | 340 ft | 0 kts | 177° |
| 2026-04-20 15:43 | 49.43281 | -2.59564 | 336 ft | 2 kts | 178° |
| 2026-04-20 15:43 | 49.43300 | -2.59565 | 340 ft | 3 kts | 180° |
| 2026-04-20 15:43 | 49.43320 | -2.59564 | 335 ft | 3 kts | 184° |
| 2026-04-20 15:43 | 49.43340 | -2.59560 | 336 ft | 3 kts | 195° |
| 2026-04-20 15:44 | 49.43357 | -2.59549 | 337 ft | 3 kts | 227° |
| 2026-04-20 15:44 | 49.43364 | -2.59534 | 334 ft | 1 kts | 267° |
| 2026-04-20 15:44 | 49.43364 | -2.59533 | 334 ft | 0 kts | 267° |
| 2026-04-20 15:46 | 49.43364 | -2.59538 | 334 ft | 3 kts | 267° |
| 2026-04-20 15:46 | 49.43362 | -2.59603 | 337 ft | 9 kts | 267° |
| 2026-04-20 15:47 | 49.43354 | -2.59717 | 337 ft | 12 kts | 258° |
| 2026-04-20 15:47 | 49.43344 | -2.59866 | 340 ft | 15 kts | 266° |
| 2026-04-20 15:47 | 49.43339 | -2.60046 | 340 ft | 18 kts | 267° |
| 2026-04-20 15:47 | 49.43334 | -2.60243 | 340 ft | 19 kts | 268° |
| 2026-04-20 15:48 | 49.43328 | -2.60460 | 338 ft | 21 kts | 268° |
| 2026-04-20 15:48 | 49.43332 | -2.60647 | 340 ft | 17 kts | 279° |
| 2026-04-20 15:48 | 49.43354 | -2.60838 | 335 ft | 19 kts | 280° |
| 2026-04-20 15:48 | 49.43363 | -2.61040 | 340 ft | 13 kts | 267° |
| 2026-04-20 15:49 | 49.43360 | -2.61149 | 340 ft | 8 kts | 267° |
| 2026-04-20 15:49 | 49.43358 | -2.61215 | 340 ft | 2 kts | 270° |
| 2026-04-20 15:49 | 49.43359 | -2.61223 | 340 ft | 0 kts | 274° |
| 2026-04-20 15:52 | 49.43362 | -2.61241 | 340 ft | 4 kts | 289° |
| 2026-04-20 15:53 | 49.43417 | -2.61344 | 348 ft | 6 kts | 327° |
| 2026-04-20 15:53 | 49.43450 | -2.61351 | 346 ft | 5 kts | 10° |
| 2026-04-20 15:53 | 49.43466 | -2.61311 | 347 ft | 5 kts | 85° |
| 2026-04-20 15:53 | 49.43466 | -2.61300 | 347 ft | 0 kts | 88° |
| 2026-04-20 15:54 | 49.43469 | -2.61190 | 350 ft | 44 kts | 87° |
| 2026-04-20 15:54 | 49.43499 | -2.60214 | 345 ft | 134 kts | 87° |
| 2026-04-20 15:54 | 49.43530 | -2.58579 | 864 ft | 155 kts | 84° |
| 2026-04-20 15:54 | 49.43577 | -2.56940 | 1904 ft | 155 kts | 85° |
| 2026-04-20 15:55 | 49.43627 | -2.55211 | 2494 ft | 171 kts | 86° |
| 2026-04-20 15:55 | 49.43682 | -2.53296 | 3019 ft | 187 kts | 86° |
| 2026-04-20 15:55 | 49.43760 | -2.51213 | 3668 ft | 201 kts | 81° |
| 2026-04-20 15:55 | 49.44364 | -2.49258 | 3972 ft | 208 kts | 45° |
| 2026-04-20 15:56 | 49.45680 | -2.48270 | 4002 ft | 213 kts | 18° |
| 2026-04-20 15:56 | 49.47138 | -2.47751 | 4325 ft | 216 kts | 17° |
| 2026-04-20 15:56 | 49.48621 | -2.47209 | 5140 ft | 228 kts | 15° |
| 2026-04-20 15:56 | 49.50247 | -2.46600 | 5706 ft | 252 kts | 16° |
| 2026-04-20 15:57 | 49.51994 | -2.45938 | 6570 ft | 264 kts | 15° |
| 2026-04-20 15:57 | 49.53804 | -2.45255 | 7509 ft | 271 kts | 14° |
| 2026-04-20 15:57 | 49.55656 | -2.44556 | 8510 ft | 276 kts | 14° |
| 2026-04-20 15:57 | 49.57538 | -2.43842 | 9521 ft | 281 kts | 13° |
| 2026-04-20 15:58 | 49.59454 | -2.43110 | 10487 ft | 286 kts | 13° |
| 2026-04-20 15:58 | 49.61396 | -2.42369 | 11411 ft | 289 kts | 12° |
| 2026-04-20 15:58 | 49.63363 | -2.41617 | 12352 ft | 292 kts | 11° |
| 2026-04-20 15:58 | 49.65344 | -2.40856 | 13266 ft | 296 kts | 12° |
| 2026-04-20 15:59 | 49.67352 | -2.40085 | 14176 ft | 299 kts | 10° |
| 2026-04-20 15:59 | 49.69329 | -2.39017 | 14979 ft | 306 kts | 22° |
| 2026-04-20 15:59 | 49.71145 | -2.37185 | 15533 ft | 324 kts | 37° |
| 2026-04-20 15:59 | 49.72747 | -2.34532 | 15747 ft | 350 kts | 47° |
| 2026-04-20 16:00 | 49.74345 | -2.31592 | 16173 ft | 363 kts | 47° |
| 2026-04-20 16:00 | 49.75988 | -2.28583 | 16837 ft | 369 kts | 46° |
| 2026-04-20 16:00 | 49.77655 | -2.25528 | 17550 ft | 373 kts | 46° |
| 2026-04-20 16:00 | 49.79339 | -2.22447 | 18265 ft | 377 kts | 46° |
| 2026-04-20 16:01 | 49.81071 | -2.19287 | 18900 ft | 382 kts | 46° |
| 2026-04-20 16:01 | 49.82801 | -2.16135 | 19147 ft | 385 kts | 45° |
| 2026-04-20 16:01 | 49.84543 | -2.12957 | 19217 ft | 391 kts | 46° |
| 2026-04-20 16:01 | 49.86308 | -2.09728 | 19225 ft | 393 kts | 46° |
| 2026-04-20 16:02 | 49.88075 | -2.06488 | 19227 ft | 394 kts | 46° |
| 2026-04-20 16:02 | 49.89844 | -2.03232 | 19228 ft | 394 kts | 46° |
| 2026-04-20 16:02 | 49.91608 | -1.99984 | 19230 ft | 395 kts | 46° |
| 2026-04-20 16:02 | 49.93377 | -1.96722 | 19234 ft | 395 kts | 46° |
| 2026-04-20 16:03 | 49.95145 | -1.93462 | 19232 ft | 395 kts | 46° |
| 2026-04-20 16:03 | 49.96917 | -1.90195 | 19244 ft | 395 kts | 45° |
| 2026-04-20 16:03 | 49.98717 | -1.86969 | 19240 ft | 394 kts | 41° |
| 2026-04-20 16:03 | 50.00769 | -1.84215 | 19241 ft | 388 kts | 31° |
| 2026-04-20 16:04 | 50.03071 | -1.82072 | 19246 ft | 383 kts | 21° |
| 2026-04-20 16:04 | 50.05455 | -1.80208 | 19248 ft | 383 kts | 21° |
| 2026-04-20 16:04 | 50.07828 | -1.78334 | 19247 ft | 384 kts | 22° |
| 2026-04-20 16:04 | 50.10207 | -1.76442 | 19246 ft | 384 kts | 22° |
| 2026-04-20 16:05 | 50.12530 | -1.74379 | 19241 ft | 388 kts | 30° |
| 2026-04-20 16:05 | 50.14656 | -1.71755 | 19248 ft | 391 kts | 35° |
| 2026-04-20 16:05 | 50.16747 | -1.69037 | 19248 ft | 391 kts | 35° |
| 2026-04-20 16:05 | 50.18833 | -1.66329 | 19262 ft | 391 kts | 35° |
| 2026-04-20 16:06 | 50.20929 | -1.63612 | 19256 ft | 391 kts | 34° |
| 2026-04-20 16:06 | 50.23019 | -1.60904 | 19252 ft | 391 kts | 34° |
| 2026-04-20 16:06 | 50.25128 | -1.58247 | 19255 ft | 388 kts | 30° |
| 2026-04-20 16:06 | 50.27427 | -1.56114 | 19249 ft | 382 kts | 20° |
| 2026-04-20 16:07 | 50.29892 | -1.54636 | 19258 ft | 377 kts | 12° |
| 2026-04-20 16:07 | 50.32398 | -1.53422 | 19251 ft | 377 kts | 12° |
| 2026-04-20 16:07 | 50.34896 | -1.52198 | 19247 ft | 377 kts | 12° |
| 2026-04-20 16:07 | 50.37400 | -1.50967 | 19251 ft | 377 kts | 12° |
| 2026-04-20 16:08 | 50.39904 | -1.49735 | 19256 ft | 377 kts | 12° |
| 2026-04-20 16:08 | 50.42406 | -1.48507 | 19273 ft | 377 kts | 12° |
| 2026-04-20 16:08 | 50.44939 | -1.47263 | 19269 ft | 377 kts | 12° |
| 2026-04-20 16:08 | 50.47409 | -1.46050 | 19272 ft | 376 kts | 12° |
| 2026-04-20 16:09 | 50.49941 | -1.44803 | 19260 ft | 376 kts | 12° |
| 2026-04-20 16:09 | 50.52440 | -1.43567 | 19261 ft | 376 kts | 13° |
| 2026-04-20 16:09 | 50.54868 | -1.41974 | 19262 ft | 382 kts | 22° |
| 2026-04-20 16:09 | 50.57202 | -1.39964 | 19258 ft | 383 kts | 24° |
| 2026-04-20 16:10 | 50.59537 | -1.37955 | 19274 ft | 383 kts | 23° |
| 2026-04-20 16:10 | 50.61875 | -1.35947 | 19268 ft | 382 kts | 23° |
| 2026-04-20 16:10 | 50.64208 | -1.33946 | 19288 ft | 382 kts | 23° |
| 2026-04-20 16:10 | 50.66543 | -1.31949 | 19287 ft | 381 kts | 23° |
| 2026-04-20 16:11 | 50.68868 | -1.29952 | 19282 ft | 380 kts | 23° |
| 2026-04-20 16:11 | 50.71188 | -1.27950 | 19280 ft | 380 kts | 23° |
| 2026-04-20 16:11 | 50.73504 | -1.25944 | 19275 ft | 380 kts | 23° |
| 2026-04-20 16:11 | 50.75819 | -1.23936 | 19273 ft | 379 kts | 23° |
| 2026-04-20 16:12 | 50.78097 | -1.21837 | 19255 ft | 376 kts | 26° |
| 2026-04-20 16:12 | 50.80295 | -1.19629 | 19245 ft | 374 kts | 27° |
| 2026-04-20 16:12 | 50.82462 | -1.17351 | 19245 ft | 373 kts | 28° |
| 2026-04-20 16:12 | 50.84617 | -1.15054 | 19191 ft | 372 kts | 28° |
| 2026-04-20 16:13 | 50.86754 | -1.12776 | 18113 ft | 373 kts | 29° |
| 2026-04-20 16:13 | 50.88948 | -1.10468 | 16934 ft | 374 kts | 29° |
| 2026-04-20 16:13 | 50.91064 | -1.08262 | 16407 ft | 355 kts | 29° |
| 2026-04-20 16:13 | 50.93080 | -1.06172 | 15643 ft | 347 kts | 29° |
| 2026-04-20 16:14 | 50.95113 | -1.04076 | 14790 ft | 343 kts | 30° |
| 2026-04-20 16:14 | 50.97097 | -1.02019 | 13926 ft | 339 kts | 30° |
| 2026-04-20 16:14 | 50.99070 | -0.99970 | 13389 ft | 338 kts | 31° |
| 2026-04-20 16:14 | 51.00926 | -0.97670 | 13218 ft | 341 kts | 41° |
| 2026-04-20 16:15 | 51.02547 | -0.94928 | 12688 ft | 340 kts | 45° |
| 2026-04-20 16:15 | 51.04122 | -0.92141 | 12273 ft | 336 kts | 46° |
| 2026-04-20 16:15 | 51.05662 | -0.89390 | 11865 ft | 332 kts | 46° |
| 2026-04-20 16:15 | 51.07190 | -0.86649 | 11455 ft | 329 kts | 46° |
| 2026-04-20 16:16 | 51.08700 | -0.83939 | 11036 ft | 325 kts | 46° |
| 2026-04-20 16:16 | 51.10201 | -0.81247 | 10648 ft | 321 kts | 46° |
| 2026-04-20 16:16 | 51.11632 | -0.78673 | 10438 ft | 299 kts | 46° |
| 2026-04-20 16:16 | 51.12980 | -0.76255 | 10166 ft | 285 kts | 46° |
| 2026-04-20 16:17 | 51.14290 | -0.73915 | 10038 ft | 282 kts | 47° |
| 2026-04-20 16:17 | 51.15590 | -0.71592 | 9895 ft | 280 kts | 46° |
| 2026-04-20 16:17 | 51.16891 | -0.69267 | 9769 ft | 280 kts | 47° |
| 2026-04-20 16:17 | 51.18182 | -0.66954 | 9543 ft | 278 kts | 47° |
| 2026-04-20 16:18 | 51.19466 | -0.64650 | 9241 ft | 277 kts | 47° |
| 2026-04-20 16:18 | 51.20756 | -0.62335 | 8905 ft | 275 kts | 46° |
| 2026-04-20 16:18 | 51.22018 | -0.60060 | 8566 ft | 272 kts | 47° |
| 2026-04-20 16:18 | 51.23266 | -0.57805 | 8231 ft | 270 kts | 47° |
| 2026-04-20 16:19 | 51.24506 | -0.55569 | 7903 ft | 268 kts | 47° |
| 2026-04-20 16:19 | 51.25734 | -0.53357 | 7577 ft | 265 kts | 47° |
| 2026-04-20 16:19 | 51.26964 | -0.51243 | 7430 ft | 255 kts | 40° |
| 2026-04-20 16:19 | 51.28511 | -0.50053 | 7314 ft | 245 kts | 11° |
| 2026-04-20 16:20 | 51.30169 | -0.50223 | 7265 ft | 237 kts | 343° |
| 2026-04-20 16:20 | 51.31575 | -0.51620 | 7266 ft | 238 kts | 315° |
| 2026-04-20 16:20 | 51.32409 | -0.53922 | 7274 ft | 243 kts | 290° |
| 2026-04-20 16:20 | 51.32938 | -0.56496 | 7272 ft | 244 kts | 290° |
| 2026-04-20 16:21 | 51.33464 | -0.59078 | 7270 ft | 244 kts | 289° |
| 2026-04-20 16:21 | 51.33987 | -0.61652 | 7259 ft | 244 kts | 292° |
| 2026-04-20 16:21 | 51.34337 | -0.63368 | 7267 ft | 245 kts | 291° |
| 2026-04-20 16:21 | 51.34863 | -0.65966 | 7215 ft | 247 kts | 291° |
| 2026-04-20 16:22 | 51.35392 | -0.68632 | 6786 ft | 252 kts | 290° |
| 2026-04-20 16:22 | 51.35907 | -0.71286 | 6460 ft | 250 kts | 290° |
| 2026-04-20 16:22 | 51.36417 | -0.73928 | 6112 ft | 246 kts | 290° |
| 2026-04-20 16:22 | 51.37046 | -0.76424 | 5798 ft | 232 kts | 308° |
| 2026-04-20 16:23 | 51.38182 | -0.78088 | 5407 ft | 216 kts | 336° |
| 2026-04-20 16:23 | 51.39572 | -0.78714 | 5068 ft | 202 kts | 0° |
| 2026-04-20 16:23 | 51.40943 | -0.78778 | 4748 ft | 194 kts | 1° |
| 2026-04-20 16:23 | 51.42266 | -0.78850 | 4443 ft | 186 kts | 1° |
| 2026-04-20 16:24 | 51.43539 | -0.78918 | 4212 ft | 182 kts | 2° |
| 2026-04-20 16:24 | 51.44795 | -0.78983 | 3934 ft | 180 kts | 2° |
| 2026-04-20 16:24 | 51.46046 | -0.79043 | 3676 ft | 179 kts | 3° |
| 2026-04-20 16:24 | 51.47174 | -0.78419 | 3527 ft | 174 kts | 44° |
| 2026-04-20 16:25 | 51.47604 | -0.76662 | 3511 ft | 175 kts | 86° |
| 2026-04-20 16:25 | 51.47587 | -0.74705 | 3410 ft | 177 kts | 86° |
| 2026-04-20 16:25 | 51.47613 | -0.72748 | 3140 ft | 175 kts | 87° |
| 2026-04-20 16:25 | 51.47632 | -0.70795 | 2894 ft | 175 kts | 88° |
| 2026-04-20 16:26 | 51.47646 | -0.68857 | 2652 ft | 171 kts | 87° |
| 2026-04-20 16:26 | 51.47657 | -0.66969 | 2423 ft | 166 kts | 88° |
| 2026-04-20 16:26 | 51.47667 | -0.65204 | 2204 ft | 151 kts | 86° |
| 2026-04-20 16:26 | 51.47675 | -0.63574 | 2002 ft | 143 kts | 87° |
| 2026-04-20 16:27 | 51.47684 | -0.62024 | 1811 ft | 137 kts | 88° |
| 2026-04-20 16:27 | 51.47686 | -0.60506 | 1611 ft | 136 kts | 89° |
| 2026-04-20 16:27 | 51.47389 | -0.59079 | 1373 ft | 137 kts | 116° |
| 2026-04-20 16:27 | 51.46849 | -0.57825 | 1245 ft | 136 kts | 115° |
| 2026-04-20 16:28 | 51.46532 | -0.56412 | 1093 ft | 133 kts | 99° |
| 2026-04-20 16:28 | 51.46472 | -0.54957 | 851 ft | 131 kts | 84° |
| 2026-04-20 16:28 | 51.46463 | -0.53493 | 660 ft | 132 kts | 89° |
| 2026-04-20 16:28 | 51.46465 | -0.52009 | 523 ft | 133 kts | 88° |
| 2026-04-20 16:29 | 51.46468 | -0.50506 | 384 ft | 132 kts | 85° |
| 2026-04-20 16:29 | 51.46468 | -0.49041 | 225 ft | 134 kts | 88° |
| 2026-04-20 16:29 | 51.46476 | -0.47560 | 121 ft | 130 kts | 86° |
| 2026-04-20 16:29 | 51.46488 | -0.46359 | 89 ft | 96 kts | 90° |
| 2026-04-20 16:30 | 51.46489 | -0.45615 | 86 ft | 20 kts | 90° |
| 2026-04-20 16:30 | 51.46493 | -0.45511 | 86 ft | 15 kts | 85° |
| 2026-04-20 16:30 | 51.46522 | -0.45278 | 88 ft | 26 kts | 71° |
| 2026-04-20 16:30 | 51.46585 | -0.45107 | 89 ft | 14 kts | 38° |
| 2026-04-20 16:31 | 51.46614 | -0.45091 | 87 ft | 4 kts | 11° |
| 2026-04-20 16:31 | 51.46671 | -0.45078 | 87 ft | 11 kts | 7° |
| 2026-04-20 16:31 | 51.46747 | -0.45109 | 88 ft | 13 kts | 301° |
| 2026-04-20 16:31 | 51.46750 | -0.45290 | 86 ft | 19 kts | 270° |
| 2026-04-20 16:32 | 51.46750 | -0.45518 | 86 ft | 22 kts | 270° |
| 2026-04-20 16:32 | 51.46749 | -0.45764 | 86 ft | 20 kts | 269° |
| 2026-04-20 16:32 | 51.46748 | -0.45991 | 86 ft | 20 kts | 270° |
| 2026-04-20 16:32 | 51.46747 | -0.46203 | 90 ft | 20 kts | 269° |
| 2026-04-20 16:33 | 51.46747 | -0.46436 | 90 ft | 22 kts | 270° |
| 2026-04-20 16:33 | 51.46747 | -0.46693 | 86 ft | 23 kts | 269° |
| 2026-04-20 16:33 | 51.46747 | -0.46937 | 86 ft | 20 kts | 269° |
| 2026-04-20 16:33 | 51.46747 | -0.47143 | 89 ft | 14 kts | 270° |
| 2026-04-20 16:34 | 51.46746 | -0.47291 | 86 ft | 15 kts | 269° |
| 2026-04-20 16:34 | 51.46746 | -0.47472 | 86 ft | 17 kts | 270° |
| 2026-04-20 16:34 | 51.46745 | -0.47597 | 86 ft | 10 kts | 270° |
| 2026-04-20 16:34 | 51.46745 | -0.47704 | 86 ft | 8 kts | 269° |
| 2026-04-20 16:35 | 51.46744 | -0.47803 | 86 ft | 11 kts | 270° |
| 2026-04-20 16:35 | 51.46744 | -0.47938 | 86 ft | 14 kts | 269° |
| 2026-04-20 16:35 | 51.46744 | -0.48104 | 86 ft | 16 kts | 270° |
| 2026-04-20 16:35 | 51.46743 | -0.48272 | 86 ft | 11 kts | 270° |
| 2026-04-20 16:36 | 51.46790 | -0.48354 | 89 ft | 13 kts | 353° |
| 2026-04-20 16:36 | 51.46871 | -0.48386 | 87 ft | 13 kts | 304° |
| 2026-04-20 16:36 | 51.46877 | -0.48507 | 86 ft | 7 kts | 269° |
| 2026-04-20 16:36 | 51.46877 | -0.48588 | 86 ft | 4 kts | 270° |
| 2026-04-20 16:37 | 51.46885 | -0.48641 | 86 ft | 5 kts | 316° |
| 2026-04-20 16:37 | 51.46921 | -0.48647 | 87 ft | 1 kts | 360° |
| 2026-04-20 16:37 | 51.46932 | -0.48647 | 89 ft | 0 kts | 360° |